sensor_id;sensor_type;location;lat;lon;timestamp;P1;durP1;ratioP1;P2;durP2;ratioP2
40459;SDS011;26164;51.138;16.952;2023-02-14T00:01:47;26.48;;;13.93;;
40459;SDS011;26164;51.138;16.952;2023-02-14T00:04:13;28.27;;;14.20;;
40459;SDS011;26164;51.138;16.952;2023-02-14T00:06:39;26.30;;;14.68;;
40459;SDS011;26164;51.138;16.952;2023-02-14T00:09:12;28.90;;;14.30;;
40459;SDS011;26164;51.138;16.952;2023-02-14T00:11:38;24.75;;;13.60;;
40459;SDS011;26164;51.138;16.952;2023-02-14T00:14:04;26.98;;;13.40;;
40459;SDS011;26164;51.138;16.952;2023-02-14T00:16:49;26.33;;;12.88;;
40459;SDS011;26164;51.138;16.952;2023-02-14T00:19:15;24.65;;;13.38;;
40459;SDS011;26164;51.138;16.952;2023-02-14T00:21:42;24.85;;;14.02;;
40459;SDS011;26164;51.138;16.952;2023-02-14T00:24:09;31.02;;;14.52;;
40459;SDS011;26164;51.138;16.952;2023-02-14T00:26:36;37.35;;;17.92;;
40459;SDS011;26164;51.138;16.952;2023-02-14T00:29:05;35.05;;;17.35;;
40459;SDS011;26164;51.138;16.952;2023-02-14T00:31:33;33.35;;;16.92;;
40459;SDS011;26164;51.138;16.952;2023-02-14T00:34:00;32.78;;;14.70;;
40459;SDS011;26164;51.138;16.952;2023-02-14T00:36:26;30.02;;;14.88;;
40459;SDS011;26164;51.138;16.952;2023-02-14T00:38:53;33.17;;;15.48;;
40459;SDS011;26164;51.138;16.952;2023-02-14T00:41:18;27.60;;;14.02;;
40459;SDS011;26164;51.138;16.952;2023-02-14T00:43:48;28.45;;;14.27;;
40459;SDS011;26164;51.138;16.952;2023-02-14T00:46:14;30.83;;;15.15;;
40459;SDS011;26164;51.138;16.952;2023-02-14T00:48:41;29.30;;;14.80;;
40459;SDS011;26164;51.138;16.952;2023-02-14T00:51:07;28.48;;;14.80;;
40459;SDS011;26164;51.138;16.952;2023-02-14T00:53:33;29.73;;;14.88;;
40459;SDS011;26164;51.138;16.952;2023-02-14T00:55:59;31.17;;;15.57;;
40459;SDS011;26164;51.138;16.952;2023-02-14T00:58:25;26.15;;;14.45;;
40459;SDS011;26164;51.138;16.952;2023-02-14T01:00:52;28.00;;;13.85;;
40459;SDS011;26164;51.138;16.952;2023-02-14T01:03:19;28.00;;;14.55;;
40459;SDS011;26164;51.138;16.952;2023-02-14T01:05:48;28.10;;;13.95;;
40459;SDS011;26164;51.138;16.952;2023-02-14T01:08:14;24.20;;;13.52;;
40459;SDS011;26164;51.138;16.952;2023-02-14T01:10:40;25.17;;;13.98;;
40459;SDS011;26164;51.138;16.952;2023-02-14T01:13:06;24.40;;;13.40;;
40459;SDS011;26164;51.138;16.952;2023-02-14T01:15:33;28.10;;;13.48;;
40459;SDS011;26164;51.138;16.952;2023-02-14T01:18:03;25.38;;;12.82;;
40459;SDS011;26164;51.138;16.952;2023-02-14T01:20:29;25.63;;;12.77;;
40459;SDS011;26164;51.138;16.952;2023-02-14T01:22:55;25.17;;;13.40;;
40459;SDS011;26164;51.138;16.952;2023-02-14T01:25:21;24.70;;;12.35;;
40459;SDS011;26164;51.138;16.952;2023-02-14T01:27:46;25.67;;;12.27;;
40459;SDS011;26164;51.138;16.952;2023-02-14T01:30:12;25.00;;;12.73;;
40459;SDS011;26164;51.138;16.952;2023-02-14T01:32:39;24.13;;;12.30;;
40459;SDS011;26164;51.138;16.952;2023-02-14T01:35:07;20.42;;;11.85;;
40459;SDS011;26164;51.138;16.952;2023-02-14T01:37:33;22.92;;;12.77;;
40459;SDS011;26164;51.138;16.952;2023-02-14T01:39:59;27.52;;;12.95;;
40459;SDS011;26164;51.138;16.952;2023-02-14T01:42:25;22.92;;;12.38;;
40459;SDS011;26164;51.138;16.952;2023-02-14T01:47:19;23.35;;;12.45;;
40459;SDS011;26164;51.138;16.952;2023-02-14T01:49:46;26.33;;;12.63;;
40459;SDS011;26164;51.138;16.952;2023-02-14T01:54:48;21.17;;;12.50;;
40459;SDS011;26164;51.138;16.952;2023-02-14T01:57:17;22.10;;;12.32;;
40459;SDS011;26164;51.138;16.952;2023-02-14T01:59:46;25.35;;;12.43;;
40459;SDS011;26164;51.138;16.952;2023-02-14T02:02:13;23.08;;;12.43;;
40459;SDS011;26164;51.138;16.952;2023-02-14T02:04:40;19.45;;;10.45;;
40459;SDS011;26164;51.138;16.952;2023-02-14T02:07:08;22.05;;;11.75;;
40459;SDS011;26164;51.138;16.952;2023-02-14T02:09:39;19.10;;;11.40;;
40459;SDS011;26164;51.138;16.952;2023-02-14T02:12:08;19.33;;;10.90;;
40459;SDS011;26164;51.138;16.952;2023-02-14T02:14:35;20.35;;;11.13;;
40459;SDS011;26164;51.138;16.952;2023-02-14T02:25:06;22.02;;;11.25;;
40459;SDS011;26164;51.138;16.952;2023-02-14T02:30:30;21.90;;;10.98;;
40459;SDS011;26164;51.138;16.952;2023-02-14T02:35:31;23.15;;;13.30;;
40459;SDS011;26164;51.138;16.952;2023-02-14T02:38:12;21.33;;;12.23;;
40459;SDS011;26164;51.138;16.952;2023-02-14T02:43:31;20.08;;;11.90;;
40459;SDS011;26164;51.138;16.952;2023-02-14T02:46:03;23.38;;;12.48;;
40459;SDS011;26164;51.138;16.952;2023-02-14T02:48:57;21.25;;;11.23;;
40459;SDS011;26164;51.138;16.952;2023-02-14T02:54:12;21.03;;;12.20;;
40459;SDS011;26164;51.138;16.952;2023-02-14T02:56:51;18.30;;;11.57;;
40459;SDS011;26164;51.138;16.952;2023-02-14T02:59:20;19.70;;;11.98;;
40459;SDS011;26164;51.138;16.952;2023-02-14T03:04:55;20.40;;;11.82;;
40459;SDS011;26164;51.138;16.952;2023-02-14T03:07:36;20.30;;;11.73;;
40459;SDS011;26164;51.138;16.952;2023-02-14T03:10:10;20.13;;;12.00;;
40459;SDS011;26164;51.138;16.952;2023-02-14T03:12:50;24.55;;;12.98;;
40459;SDS011;26164;51.138;16.952;2023-02-14T03:18:06;21.85;;;13.38;;
40459;SDS011;26164;51.138;16.952;2023-02-14T03:23:12;22.13;;;12.38;;
40459;SDS011;26164;51.138;16.952;2023-02-14T03:25:57;22.27;;;12.73;;
40459;SDS011;26164;51.138;16.952;2023-02-14T03:30:56;18.98;;;11.80;;
40459;SDS011;26164;51.138;16.952;2023-02-14T03:36:26;22.25;;;11.60;;
40459;SDS011;26164;51.138;16.952;2023-02-14T03:39:00;20.67;;;10.77;;
40459;SDS011;26164;51.138;16.952;2023-02-14T03:41:28;19.25;;;11.15;;
40459;SDS011;26164;51.138;16.952;2023-02-14T03:44:02;21.83;;;11.70;;
40459;SDS011;26164;51.138;16.952;2023-02-14T03:46:34;18.40;;;11.38;;
40459;SDS011;26164;51.138;16.952;2023-02-14T03:49:04;21.40;;;12.00;;
40459;SDS011;26164;51.138;16.952;2023-02-14T03:51:31;25.88;;;12.95;;
40459;SDS011;26164;51.138;16.952;2023-02-14T03:53:58;23.80;;;13.15;;
40459;SDS011;26164;51.138;16.952;2023-02-14T03:56:31;19.45;;;11.43;;
40459;SDS011;26164;51.138;16.952;2023-02-14T03:58:59;23.65;;;11.68;;
40459;SDS011;26164;51.138;16.952;2023-02-14T04:01:37;21.80;;;11.48;;
40459;SDS011;26164;51.138;16.952;2023-02-14T04:04:04;22.23;;;11.73;;
40459;SDS011;26164;51.138;16.952;2023-02-14T04:06:32;20.95;;;11.07;;
40459;SDS011;26164;51.138;16.952;2023-02-14T04:08:58;20.08;;;11.80;;
40459;SDS011;26164;51.138;16.952;2023-02-14T04:11:24;22.90;;;11.75;;
40459;SDS011;26164;51.138;16.952;2023-02-14T04:13:49;23.70;;;12.75;;
40459;SDS011;26164;51.138;16.952;2023-02-14T04:16:15;19.42;;;11.85;;
40459;SDS011;26164;51.138;16.952;2023-02-14T04:18:41;22.20;;;11.98;;
40459;SDS011;26164;51.138;16.952;2023-02-14T04:21:26;21.42;;;11.77;;
40459;SDS011;26164;51.138;16.952;2023-02-14T04:23:51;21.13;;;12.52;;
40459;SDS011;26164;51.138;16.952;2023-02-14T04:26:17;22.77;;;11.80;;
40459;SDS011;26164;51.138;16.952;2023-02-14T04:28:45;22.80;;;12.50;;
40459;SDS011;26164;51.138;16.952;2023-02-14T04:31:11;21.88;;;11.80;;
40459;SDS011;26164;51.138;16.952;2023-02-14T04:33:36;22.60;;;11.50;;
40459;SDS011;26164;51.138;16.952;2023-02-14T04:36:04;20.20;;;11.98;;
40459;SDS011;26164;51.138;16.952;2023-02-14T04:38:30;27.75;;;12.98;;
40459;SDS011;26164;51.138;16.952;2023-02-14T04:40:56;22.55;;;11.65;;
40459;SDS011;26164;51.138;16.952;2023-02-14T04:43:21;20.60;;;11.77;;
40459;SDS011;26164;51.138;16.952;2023-02-14T04:45:47;25.08;;;12.35;;
40459;SDS011;26164;51.138;16.952;2023-02-14T04:48:13;23.38;;;11.73;;
40459;SDS011;26164;51.138;16.952;2023-02-14T04:50:39;24.40;;;12.23;;
40459;SDS011;26164;51.138;16.952;2023-02-14T04:53:04;19.67;;;11.52;;
40459;SDS011;26164;51.138;16.952;2023-02-14T04:55:30;25.40;;;12.45;;
40459;SDS011;26164;51.138;16.952;2023-02-14T04:57:56;23.23;;;12.80;;
40459;SDS011;26164;51.138;16.952;2023-02-14T05:00:22;21.02;;;12.98;;
40459;SDS011;26164;51.138;16.952;2023-02-14T05:02:48;23.60;;;11.88;;
40459;SDS011;26164;51.138;16.952;2023-02-14T05:05:14;21.85;;;12.32;;
40459;SDS011;26164;51.138;16.952;2023-02-14T05:07:40;21.38;;;12.77;;
40459;SDS011;26164;51.138;16.952;2023-02-14T05:10:07;21.80;;;12.65;;
40459;SDS011;26164;51.138;16.952;2023-02-14T05:12:33;21.63;;;12.55;;
40459;SDS011;26164;51.138;16.952;2023-02-14T05:14:59;21.00;;;12.07;;
40459;SDS011;26164;51.138;16.952;2023-02-14T05:17:24;22.65;;;13.15;;
40459;SDS011;26164;51.138;16.952;2023-02-14T05:19:50;25.73;;;13.57;;
40459;SDS011;26164;51.138;16.952;2023-02-14T05:22:16;24.38;;;13.68;;
40459;SDS011;26164;51.138;16.952;2023-02-14T05:24:42;24.20;;;12.98;;
40459;SDS011;26164;51.138;16.952;2023-02-14T05:27:07;25.83;;;13.35;;
40459;SDS011;26164;51.138;16.952;2023-02-14T05:29:36;29.10;;;12.95;;
40459;SDS011;26164;51.138;16.952;2023-02-14T05:32:01;25.73;;;14.30;;
40459;SDS011;26164;51.138;16.952;2023-02-14T05:34:27;23.73;;;13.02;;
40459;SDS011;26164;51.138;16.952;2023-02-14T05:36:53;23.00;;;12.98;;
40459;SDS011;26164;51.138;16.952;2023-02-14T05:39:20;26.50;;;14.20;;
40459;SDS011;26164;51.138;16.952;2023-02-14T05:41:45;24.77;;;13.68;;
40459;SDS011;26164;51.138;16.952;2023-02-14T05:44:13;27.13;;;13.50;;
40459;SDS011;26164;51.138;16.952;2023-02-14T05:46:38;23.65;;;13.00;;
40459;SDS011;26164;51.138;16.952;2023-02-14T05:49:04;25.02;;;11.60;;
40459;SDS011;26164;51.138;16.952;2023-02-14T05:51:30;27.33;;;12.98;;
40459;SDS011;26164;51.138;16.952;2023-02-14T05:53:56;23.88;;;13.48;;
40459;SDS011;26164;51.138;16.952;2023-02-14T05:56:24;27.83;;;13.55;;
40459;SDS011;26164;51.138;16.952;2023-02-14T05:58:50;30.92;;;14.15;;
40459;SDS011;26164;51.138;16.952;2023-02-14T06:01:15;26.55;;;13.75;;
40459;SDS011;26164;51.138;16.952;2023-02-14T06:03:41;25.60;;;14.23;;
40459;SDS011;26164;51.138;16.952;2023-02-14T06:06:08;25.40;;;13.45;;
40459;SDS011;26164;51.138;16.952;2023-02-14T06:08:34;23.95;;;13.57;;
40459;SDS011;26164;51.138;16.952;2023-02-14T06:11:00;25.17;;;13.25;;
40459;SDS011;26164;51.138;16.952;2023-02-14T06:13:26;27.30;;;13.35;;
40459;SDS011;26164;51.138;16.952;2023-02-14T06:15:51;24.30;;;13.15;;
40459;SDS011;26164;51.138;16.952;2023-02-14T06:18:17;27.20;;;13.68;;
40459;SDS011;26164;51.138;16.952;2023-02-14T06:20:43;29.00;;;12.93;;
40459;SDS011;26164;51.138;16.952;2023-02-14T06:23:11;31.92;;;14.02;;
40459;SDS011;26164;51.138;16.952;2023-02-14T06:25:36;22.85;;;13.48;;
40459;SDS011;26164;51.138;16.952;2023-02-14T06:28:05;23.17;;;12.77;;
40459;SDS011;26164;51.138;16.952;2023-02-14T06:30:32;24.48;;;14.05;;
40459;SDS011;26164;51.138;16.952;2023-02-14T06:32:58;28.38;;;13.80;;
40459;SDS011;26164;51.138;16.952;2023-02-14T06:35:24;24.67;;;13.52;;
40459;SDS011;26164;51.138;16.952;2023-02-14T06:37:50;25.42;;;14.02;;
40459;SDS011;26164;51.138;16.952;2023-02-14T06:40:15;24.50;;;14.05;;
40459;SDS011;26164;51.138;16.952;2023-02-14T06:42:41;28.48;;;13.23;;
40459;SDS011;26164;51.138;16.952;2023-02-14T06:45:08;27.83;;;13.00;;
40459;SDS011;26164;51.138;16.952;2023-02-14T06:47:34;25.20;;;12.13;;
40459;SDS011;26164;51.138;16.952;2023-02-14T06:49:59;22.33;;;11.50;;
40459;SDS011;26164;51.138;16.952;2023-02-14T06:52:26;23.98;;;14.00;;
40459;SDS011;26164;51.138;16.952;2023-02-14T06:54:52;27.65;;;13.27;;
40459;SDS011;26164;51.138;16.952;2023-02-14T06:57:28;22.33;;;12.50;;
40459;SDS011;26164;51.138;16.952;2023-02-14T06:59:54;24.17;;;12.68;;
40459;SDS011;26164;51.138;16.952;2023-02-14T07:02:22;27.45;;;12.40;;
40459;SDS011;26164;51.138;16.952;2023-02-14T07:04:48;24.25;;;12.93;;
40459;SDS011;26164;51.138;16.952;2023-02-14T07:07:14;20.60;;;12.48;;
40459;SDS011;26164;51.138;16.952;2023-02-14T07:09:42;23.83;;;11.48;;
40459;SDS011;26164;51.138;16.952;2023-02-14T07:12:11;25.13;;;12.48;;
40459;SDS011;26164;51.138;16.952;2023-02-14T07:14:36;26.65;;;11.82;;
40459;SDS011;26164;51.138;16.952;2023-02-14T07:17:02;26.88;;;12.70;;
40459;SDS011;26164;51.138;16.952;2023-02-14T07:19:30;25.42;;;12.80;;
40459;SDS011;26164;51.138;16.952;2023-02-14T07:22:00;24.98;;;12.98;;
40459;SDS011;26164;51.138;16.952;2023-02-14T07:24:25;23.40;;;11.90;;
40459;SDS011;26164;51.138;16.952;2023-02-14T07:26:51;24.42;;;12.75;;
40459;SDS011;26164;51.138;16.952;2023-02-14T07:29:17;22.48;;;12.63;;
40459;SDS011;26164;51.138;16.952;2023-02-14T07:31:43;29.67;;;13.35;;
40459;SDS011;26164;51.138;16.952;2023-02-14T07:34:09;24.85;;;13.35;;
40459;SDS011;26164;51.138;16.952;2023-02-14T07:36:36;20.95;;;11.95;;
40459;SDS011;26164;51.138;16.952;2023-02-14T07:39:03;24.50;;;12.73;;
40459;SDS011;26164;51.138;16.952;2023-02-14T07:41:29;25.20;;;13.27;;
40459;SDS011;26164;51.138;16.952;2023-02-14T07:43:55;27.45;;;14.52;;
40459;SDS011;26164;51.138;16.952;2023-02-14T07:46:21;32.65;;;13.10;;
40459;SDS011;26164;51.138;16.952;2023-02-14T07:48:46;26.55;;;13.13;;
40459;SDS011;26164;51.138;16.952;2023-02-14T07:51:13;25.90;;;13.45;;
40459;SDS011;26164;51.138;16.952;2023-02-14T07:53:39;29.92;;;14.73;;
40459;SDS011;26164;51.138;16.952;2023-02-14T07:56:05;28.42;;;15.10;;
40459;SDS011;26164;51.138;16.952;2023-02-14T07:58:31;28.95;;;12.82;;
40459;SDS011;26164;51.138;16.952;2023-02-14T08:00:57;32.95;;;15.20;;
40459;SDS011;26164;51.138;16.952;2023-02-14T08:03:23;28.55;;;14.48;;
40459;SDS011;26164;51.138;16.952;2023-02-14T08:05:49;34.05;;;14.98;;
40459;SDS011;26164;51.138;16.952;2023-02-14T08:08:25;30.73;;;14.40;;
40459;SDS011;26164;51.138;16.952;2023-02-14T08:10:51;33.05;;;14.57;;
40459;SDS011;26164;51.138;16.952;2023-02-14T08:13:17;30.55;;;14.93;;
40459;SDS011;26164;51.138;16.952;2023-02-14T08:15:43;29.85;;;14.70;;
40459;SDS011;26164;51.138;16.952;2023-02-14T08:18:27;30.90;;;14.07;;
40459;SDS011;26164;51.138;16.952;2023-02-14T08:20:53;34.50;;;14.38;;
40459;SDS011;26164;51.138;16.952;2023-02-14T08:23:19;32.08;;;13.98;;
40459;SDS011;26164;51.138;16.952;2023-02-14T08:25:46;28.27;;;13.80;;
40459;SDS011;26164;51.138;16.952;2023-02-14T08:28:12;27.50;;;14.00;;
40459;SDS011;26164;51.138;16.952;2023-02-14T08:30:42;25.95;;;13.55;;
40459;SDS011;26164;51.138;16.952;2023-02-14T08:33:08;21.05;;;11.57;;
40459;SDS011;26164;51.138;16.952;2023-02-14T08:35:34;29.08;;;13.63;;
40459;SDS011;26164;51.138;16.952;2023-02-14T08:38:00;22.67;;;12.48;;
40459;SDS011;26164;51.138;16.952;2023-02-14T08:40:26;24.63;;;13.10;;
40459;SDS011;26164;51.138;16.952;2023-02-14T08:42:51;26.75;;;12.98;;
40459;SDS011;26164;51.138;16.952;2023-02-14T08:45:20;23.80;;;12.27;;
40459;SDS011;26164;51.138;16.952;2023-02-14T08:47:46;27.73;;;13.27;;
40459;SDS011;26164;51.138;16.952;2023-02-14T08:50:13;28.23;;;13.18;;
40459;SDS011;26164;51.138;16.952;2023-02-14T08:52:39;24.73;;;12.75;;
40459;SDS011;26164;51.138;16.952;2023-02-14T08:55:06;23.70;;;13.15;;
40459;SDS011;26164;51.138;16.952;2023-02-14T08:57:31;21.52;;;10.88;;
40459;SDS011;26164;51.138;16.952;2023-02-14T08:59:57;24.35;;;12.30;;
40459;SDS011;26164;51.138;16.952;2023-02-14T09:02:23;22.35;;;10.90;;
40459;SDS011;26164;51.138;16.952;2023-02-14T09:04:52;29.23;;;12.73;;
40459;SDS011;26164;51.138;16.952;2023-02-14T09:07:18;24.60;;;12.82;;
40459;SDS011;26164;51.138;16.952;2023-02-14T09:09:44;25.33;;;11.98;;
40459;SDS011;26164;51.138;16.952;2023-02-14T09:12:10;20.77;;;10.82;;
40459;SDS011;26164;51.138;16.952;2023-02-14T09:14:40;25.00;;;11.88;;
40459;SDS011;26164;51.138;16.952;2023-02-14T09:17:08;22.88;;;12.30;;
40459;SDS011;26164;51.138;16.952;2023-02-14T09:19:35;31.10;;;12.68;;
40459;SDS011;26164;51.138;16.952;2023-02-14T09:22:01;26.95;;;12.85;;
40459;SDS011;26164;51.138;16.952;2023-02-14T09:24:29;24.75;;;12.15;;
40459;SDS011;26164;51.138;16.952;2023-02-14T09:26:54;27.73;;;12.07;;
40459;SDS011;26164;51.138;16.952;2023-02-14T09:29:25;22.55;;;11.68;;
40459;SDS011;26164;51.138;16.952;2023-02-14T09:31:55;22.67;;;11.77;;
40459;SDS011;26164;51.138;16.952;2023-02-14T09:34:21;31.13;;;12.60;;
40459;SDS011;26164;51.138;16.952;2023-02-14T09:37:06;21.20;;;11.52;;
40459;SDS011;26164;51.138;16.952;2023-02-14T09:39:33;23.00;;;12.77;;
40459;SDS011;26164;51.138;16.952;2023-02-14T09:44:46;16.75;;;9.57;;
40459;SDS011;26164;51.138;16.952;2023-02-14T09:47:18;22.17;;;10.13;;
40459;SDS011;26164;51.138;16.952;2023-02-14T09:49:54;19.83;;;10.68;;
40459;SDS011;26164;51.138;16.952;2023-02-14T09:52:24;21.20;;;9.05;;
40459;SDS011;26164;51.138;16.952;2023-02-14T09:55:00;21.60;;;10.30;;
40459;SDS011;26164;51.138;16.952;2023-02-14T09:58:03;20.40;;;9.30;;
40459;SDS011;26164;51.138;16.952;2023-02-14T10:00:36;19.95;;;8.85;;
40459;SDS011;26164;51.138;16.952;2023-02-14T10:05:59;17.33;;;7.72;;
40459;SDS011;26164;51.138;16.952;2023-02-14T10:11:25;20.05;;;10.25;;
40459;SDS011;26164;51.138;16.952;2023-02-14T10:16:23;22.40;;;9.80;;
40459;SDS011;26164;51.138;16.952;2023-02-14T10:19:04;19.77;;;10.80;;
40459;SDS011;26164;51.138;16.952;2023-02-14T10:21:34;25.40;;;11.45;;
40459;SDS011;26164;51.138;16.952;2023-02-14T10:24:13;24.33;;;12.02;;
40459;SDS011;26164;51.138;16.952;2023-02-14T10:26:44;20.92;;;10.57;;
40459;SDS011;26164;51.138;16.952;2023-02-14T10:29:13;20.38;;;10.52;;
40459;SDS011;26164;51.138;16.952;2023-02-14T10:34:23;26.35;;;10.63;;
40459;SDS011;26164;51.138;16.952;2023-02-14T10:39:37;22.50;;;10.43;;
40459;SDS011;26164;51.138;16.952;2023-02-14T10:42:47;20.02;;;9.30;;
40459;SDS011;26164;51.138;16.952;2023-02-14T10:51:18;15.30;;;8.52;;
40459;SDS011;26164;51.138;16.952;2023-02-14T10:54:18;15.20;;;8.38;;
40459;SDS011;26164;51.138;16.952;2023-02-14T10:57:06;19.92;;;9.32;;
40459;SDS011;26164;51.138;16.952;2023-02-14T11:00:02;20.42;;;8.68;;
40459;SDS011;26164;51.138;16.952;2023-02-14T11:02:42;15.43;;;7.72;;
40459;SDS011;26164;51.138;16.952;2023-02-14T11:08:14;13.07;;;7.97;;
40459;SDS011;26164;51.138;16.952;2023-02-14T11:10:46;14.00;;;7.75;;
40459;SDS011;26164;51.138;16.952;2023-02-14T11:13:29;15.18;;;8.40;;
40459;SDS011;26164;51.138;16.952;2023-02-14T11:16:00;17.35;;;7.32;;
40459;SDS011;26164;51.138;16.952;2023-02-14T11:18:27;16.17;;;7.72;;
40459;SDS011;26164;51.138;16.952;2023-02-14T11:21:14;16.83;;;7.10;;
40459;SDS011;26164;51.138;16.952;2023-02-14T11:23:46;16.17;;;6.68;;
40459;SDS011;26164;51.138;16.952;2023-02-14T11:26:23;15.10;;;6.63;;
40459;SDS011;26164;51.138;16.952;2023-02-14T11:28:51;13.52;;;6.40;;
40459;SDS011;26164;51.138;16.952;2023-02-14T11:33:59;15.18;;;6.20;;
40459;SDS011;26164;51.138;16.952;2023-02-14T11:36:28;10.70;;;4.68;;
40459;SDS011;26164;51.138;16.952;2023-02-14T11:39:05;12.68;;;5.38;;
40459;SDS011;26164;51.138;16.952;2023-02-14T11:41:48;12.35;;;7.57;;
40459;SDS011;26164;51.138;16.952;2023-02-14T11:44:22;10.13;;;6.13;;
40459;SDS011;26164;51.138;16.952;2023-02-14T11:46:52;11.40;;;6.13;;
40459;SDS011;26164;51.138;16.952;2023-02-14T11:51:49;14.32;;;6.95;;
40459;SDS011;26164;51.138;16.952;2023-02-14T11:54:32;12.32;;;6.82;;
40459;SDS011;26164;51.138;16.952;2023-02-14T11:59:53;10.60;;;5.95;;
40459;SDS011;26164;51.138;16.952;2023-02-14T12:04:49;17.00;;;6.53;;
40459;SDS011;26164;51.138;16.952;2023-02-14T12:07:17;15.32;;;7.45;;
40459;SDS011;26164;51.138;16.952;2023-02-14T12:09:46;13.02;;;5.68;;
40459;SDS011;26164;51.138;16.952;2023-02-14T12:12:18;16.33;;;6.63;;
40459;SDS011;26164;51.138;16.952;2023-02-14T12:14:44;10.13;;;5.18;;
40459;SDS011;26164;51.138;16.952;2023-02-14T12:22:23;8.73;;;4.70;;
40459;SDS011;26164;51.138;16.952;2023-02-14T12:24:54;10.80;;;5.32;;
40459;SDS011;26164;51.138;16.952;2023-02-14T12:27:27;10.43;;;5.00;;
40459;SDS011;26164;51.138;16.952;2023-02-14T12:30:01;7.85;;;3.95;;
40459;SDS011;26164;51.138;16.952;2023-02-14T12:32:29;9.50;;;4.30;;
40459;SDS011;26164;51.138;16.952;2023-02-14T12:35:11;11.57;;;4.63;;
40459;SDS011;26164;51.138;16.952;2023-02-14T12:40:21;9.50;;;5.20;;
40459;SDS011;26164;51.138;16.952;2023-02-14T12:42:57;16.55;;;6.35;;
40459;SDS011;26164;51.138;16.952;2023-02-14T12:58:48;10.65;;;6.07;;
40459;SDS011;26164;51.138;16.952;2023-02-14T13:03:46;16.02;;;5.93;;
40459;SDS011;26164;51.138;16.952;2023-02-14T13:18:33;10.02;;;5.03;;
40459;SDS011;26164;51.138;16.952;2023-02-14T13:21:01;10.47;;;5.07;;
40459;SDS011;26164;51.138;16.952;2023-02-14T13:23:29;13.65;;;5.38;;
40459;SDS011;26164;51.138;16.952;2023-02-14T13:26:05;16.02;;;6.50;;
40459;SDS011;26164;51.138;16.952;2023-02-14T13:28:32;11.48;;;6.00;;
40459;SDS011;26164;51.138;16.952;2023-02-14T13:30:58;10.25;;;5.65;;
40459;SDS011;26164;51.138;16.952;2023-02-14T13:36:00;16.77;;;5.88;;
40459;SDS011;26164;51.138;16.952;2023-02-14T13:38:27;12.75;;;5.55;;
40459;SDS011;26164;51.138;16.952;2023-02-14T13:40:55;10.23;;;6.13;;
40459;SDS011;26164;51.138;16.952;2023-02-14T13:46:09;11.30;;;5.75;;
40459;SDS011;26164;51.138;16.952;2023-02-14T13:48:35;11.35;;;6.22;;
40459;SDS011;26164;51.138;16.952;2023-02-14T13:51:03;15.00;;;6.47;;
40459;SDS011;26164;51.138;16.952;2023-02-14T13:53:42;12.10;;;6.75;;
40459;SDS011;26164;51.138;16.952;2023-02-14T14:03:56;15.82;;;6.97;;
40459;SDS011;26164;51.138;16.952;2023-02-14T14:06:22;13.45;;;5.85;;
40459;SDS011;26164;51.138;16.952;2023-02-14T14:08:49;13.57;;;6.20;;
40459;SDS011;26164;51.138;16.952;2023-02-14T14:16:39;13.90;;;6.45;;
40459;SDS011;26164;51.138;16.952;2023-02-14T14:21:31;11.23;;;6.60;;
40459;SDS011;26164;51.138;16.952;2023-02-14T14:26:38;13.13;;;7.05;;
40459;SDS011;26164;51.138;16.952;2023-02-14T14:29:21;9.23;;;6.35;;
40459;SDS011;26164;51.138;16.952;2023-02-14T14:31:48;10.68;;;6.25;;
40459;SDS011;26164;51.138;16.952;2023-02-14T14:34:20;11.50;;;6.03;;
40459;SDS011;26164;51.138;16.952;2023-02-14T14:36:46;12.77;;;6.70;;
40459;SDS011;26164;51.138;16.952;2023-02-14T14:39:22;11.82;;;5.32;;
40459;SDS011;26164;51.138;16.952;2023-02-14T14:41:49;10.73;;;6.15;;
40459;SDS011;26164;51.138;16.952;2023-02-14T14:44:15;17.33;;;6.70;;
40459;SDS011;26164;51.138;16.952;2023-02-14T14:46:41;12.82;;;6.18;;
40459;SDS011;26164;51.138;16.952;2023-02-14T14:49:09;10.30;;;6.32;;
40459;SDS011;26164;51.138;16.952;2023-02-14T14:51:38;10.02;;;6.22;;
40459;SDS011;26164;51.138;16.952;2023-02-14T14:54:12;10.57;;;5.70;;
40459;SDS011;26164;51.138;16.952;2023-02-14T14:56:45;11.75;;;6.07;;
40459;SDS011;26164;51.138;16.952;2023-02-14T15:01:42;13.70;;;5.88;;
40459;SDS011;26164;51.138;16.952;2023-02-14T15:04:24;10.63;;;6.55;;
40459;SDS011;26164;51.138;16.952;2023-02-14T15:06:55;12.75;;;6.82;;
40459;SDS011;26164;51.138;16.952;2023-02-14T15:09:29;10.02;;;5.93;;
40459;SDS011;26164;51.138;16.952;2023-02-14T15:11:57;13.30;;;6.38;;
40459;SDS011;26164;51.138;16.952;2023-02-14T15:14:43;14.25;;;7.25;;
40459;SDS011;26164;51.138;16.952;2023-02-14T15:17:18;12.30;;;7.40;;
40459;SDS011;26164;51.138;16.952;2023-02-14T15:19:45;11.80;;;6.63;;
40459;SDS011;26164;51.138;16.952;2023-02-14T15:24:53;13.82;;;7.63;;
40459;SDS011;26164;51.138;16.952;2023-02-14T15:27:21;10.93;;;7.28;;
40459;SDS011;26164;51.138;16.952;2023-02-14T15:29:56;13.23;;;8.07;;
40459;SDS011;26164;51.138;16.952;2023-02-14T15:32:26;15.30;;;7.93;;
40459;SDS011;26164;51.138;16.952;2023-02-14T15:34:55;16.20;;;8.23;;
40459;SDS011;26164;51.138;16.952;2023-02-14T15:37:24;12.63;;;7.82;;
40459;SDS011;26164;51.138;16.952;2023-02-14T15:39:53;13.55;;;8.25;;
40459;SDS011;26164;51.138;16.952;2023-02-14T15:42:28;12.13;;;8.17;;
40459;SDS011;26164;51.138;16.952;2023-02-14T15:45:14;14.15;;;8.38;;
40459;SDS011;26164;51.138;16.952;2023-02-14T15:58:58;14.10;;;7.95;;
40459;SDS011;26164;51.138;16.952;2023-02-14T16:01:29;16.98;;;9.00;;
40459;SDS011;26164;51.138;16.952;2023-02-14T16:04:00;15.95;;;8.63;;
40459;SDS011;26164;51.138;16.952;2023-02-14T16:06:38;14.02;;;8.35;;
40459;SDS011;26164;51.138;16.952;2023-02-14T16:09:06;17.80;;;9.43;;
40459;SDS011;26164;51.138;16.952;2023-02-14T16:11:36;17.02;;;9.38;;
40459;SDS011;26164;51.138;16.952;2023-02-14T16:17:12;19.58;;;9.38;;
40459;SDS011;26164;51.138;16.952;2023-02-14T16:19:48;18.35;;;9.35;;
40459;SDS011;26164;51.138;16.952;2023-02-14T16:22:25;14.30;;;8.95;;
40459;SDS011;26164;51.138;16.952;2023-02-14T16:25:00;13.20;;;8.32;;
40459;SDS011;26164;51.138;16.952;2023-02-14T16:27:36;14.05;;;8.48;;
40459;SDS011;26164;51.138;16.952;2023-02-14T16:30:17;19.23;;;9.27;;
40459;SDS011;26164;51.138;16.952;2023-02-14T16:32:51;16.80;;;9.25;;
40459;SDS011;26164;51.138;16.952;2023-02-14T16:35:19;21.27;;;9.60;;
40459;SDS011;26164;51.138;16.952;2023-02-14T16:37:48;21.25;;;10.65;;
40459;SDS011;26164;51.138;16.952;2023-02-14T16:40:15;21.52;;;10.40;;
40459;SDS011;26164;51.138;16.952;2023-02-14T16:42:47;20.52;;;10.55;;
40459;SDS011;26164;51.138;16.952;2023-02-14T16:45:15;23.17;;;10.63;;
40459;SDS011;26164;51.138;16.952;2023-02-14T16:47:41;17.83;;;10.85;;
40459;SDS011;26164;51.138;16.952;2023-02-14T16:53:00;17.13;;;9.38;;
40459;SDS011;26164;51.138;16.952;2023-02-14T16:55:28;14.85;;;9.70;;
40459;SDS011;26164;51.138;16.952;2023-02-14T16:57:55;16.65;;;9.50;;
40459;SDS011;26164;51.138;16.952;2023-02-14T17:00:22;19.10;;;10.48;;
40459;SDS011;26164;51.138;16.952;2023-02-14T17:02:53;20.35;;;10.38;;